createdAt,value
2022-08-17T05:01:47.071Z,26.06
2022-08-17T05:04:34.411Z,26.71
2022-08-17T05:07:04.888Z,27.07
2022-08-17T05:09:33.592Z,26.80
2022-08-17T05:12:03.521Z,26.06
2022-08-17T05:14:33.582Z,25.42
2022-08-17T05:17:07.152Z,24.88
2022-08-17T05:19:39.714Z,24.42
2022-08-17T05:22:08.584Z,24.09
2022-08-17T05:24:39.028Z,23.91
2022-08-17T05:27:17.844Z,23.82
2022-08-17T05:29:47.748Z,23.78
2022-08-17T05:32:38.770Z,23.71
2022-08-17T05:35:07.025Z,23.64
2022-08-17T05:37:35.669Z,23.61
2022-08-17T05:40:05.078Z,23.63
2022-08-17T05:42:33.866Z,23.61
2022-08-17T05:45:02.524Z,23.52
2022-08-17T05:47:31.884Z,23.47
2022-08-17T05:50:02.924Z,23.43
2022-08-17T05:52:53.406Z,23.43
2022-08-17T05:55:40.764Z,23.40
2022-08-17T05:58:19.445Z,23.35
2022-08-17T06:01:15.022Z,23.35
2022-08-17T06:04:13.905Z,23.38
2022-08-17T06:06:56.765Z,23.45
2022-08-17T06:09:39.686Z,23.54
2022-08-17T06:12:52.446Z,23.62
2022-08-17T06:15:33.667Z,23.69
2022-08-17T06:18:08.368Z,23.79
2022-08-17T06:21:00.285Z,23.94
2022-08-17T06:23:42.006Z,24.02
2022-08-17T06:26:41.097Z,24.07
2022-08-17T06:29:27.421Z,24.17
2022-08-17T06:31:56.245Z,24.22
2022-08-17T06:34:25.023Z,24.26
2022-08-17T06:37:21.586Z,24.35
2022-08-17T06:40:37.921Z,24.41
2022-08-17T06:43:41.220Z,24.49
2022-08-17T06:46:36.615Z,24.65
2022-08-17T06:49:34.321Z,24.72
2022-08-17T06:52:45.630Z,24.79
2022-08-17T06:55:34.435Z,24.93
2022-08-17T06:58:15.977Z,25.07
2022-08-17T07:00:49.955Z,25.10
2022-08-17T07:03:38.630Z,25.15
2022-08-17T07:06:20.219Z,25.23
2022-08-17T07:09:03.950Z,25.30
2022-08-17T07:11:40.470Z,25.38
2022-08-17T07:14:38.731Z,25.48
2022-08-17T07:17:18.810Z,25.57
2022-08-17T07:19:51.692Z,25.63
2022-08-17T07:22:53.609Z,25.71
2022-08-17T07:25:32.292Z,25.80
2022-08-17T07:28:07.213Z,25.89
2022-08-17T07:30:47.660Z,25.98
2022-08-17T07:33:26.861Z,26.07
2022-08-17T07:35:58.739Z,26.14
2022-08-17T07:38:31.753Z,26.22
2022-08-17T07:41:08.811Z,26.32
2022-08-17T07:43:40.373Z,26.43
2022-08-17T07:47:07.068Z,26.54
2022-08-17T07:49:44.614Z,26.77
2022-08-17T07:52:51.071Z,26.87
2022-08-17T07:55:33.246Z,27.02
2022-08-17T07:58:03.810Z,27.12
2022-08-17T08:00:34.075Z,27.19
2022-08-17T08:03:28.831Z,27.24
2022-08-17T08:06:02.500Z,27.15
2022-08-17T08:08:38.556Z,27.17
2022-08-17T08:11:13.458Z,27.33
2022-08-17T08:13:45.983Z,27.41
2022-08-17T08:16:29.991Z,27.46
2022-08-17T08:19:03.427Z,27.49
2022-08-17T08:22:16.210Z,27.56
2022-08-17T08:25:12.987Z,27.68
2022-08-17T08:28:28.652Z,27.85
2022-08-17T08:31:38.890Z,27.99
2022-08-17T08:34:58.735Z,28.04
2022-08-17T08:37:35.562Z,28.17
2022-08-17T08:40:39.207Z,28.22
2022-08-17T08:43:38.810Z,28.35
2022-08-17T08:46:36.852Z,28.46
2022-08-17T08:49:45.163Z,28.55
2022-08-17T08:53:05.220Z,28.63
2022-08-17T08:55:49.380Z,28.75
2022-08-17T08:58:44.730Z,28.81
2022-08-17T09:02:11.571Z,28.88
2022-08-17T09:05:37.265Z,28.94
2022-08-17T09:08:35.951Z,29.05
2022-08-17T09:11:23.451Z,29.16
2022-08-17T09:14:22.108Z,29.20
2022-08-17T09:17:21.813Z,29.26
2022-08-17T09:20:00.448Z,29.37
2022-08-17T09:22:44.232Z,29.50
2022-08-17T09:25:22.250Z,29.61
2022-08-17T09:28:04.414Z,29.71
2022-08-17T09:30:46.557Z,29.81
2022-08-17T09:33:26.561Z,29.95
2022-08-17T09:36:10.431Z,30.08
2022-08-17T09:39:06.870Z,30.11
2022-08-17T10:01:52.258Z,30.69
2022-08-17T10:04:56.590Z,30.76
2022-08-17T10:07:49.000Z,30.98
2022-08-17T10:10:34.390Z,31.00
2022-08-17T10:13:52.007Z,31.18
2022-08-17T10:16:41.107Z,31.53
2022-08-17T10:19:26.871Z,31.47
2022-08-17T10:22:34.951Z,31.14
2022-08-17T10:25:37.539Z,31.33
2022-08-17T10:28:25.847Z,31.56
2022-08-17T10:31:33.002Z,31.59
2022-08-17T10:34:41.616Z,31.41
2022-08-17T10:37:54.731Z,31.56
2022-08-17T10:40:53.632Z,31.81
2022-08-17T10:44:39.421Z,32.00
2022-08-17T10:47:17.222Z,32.20
2022-08-17T10:49:54.484Z,32.30
2022-08-17T10:52:25.192Z,32.42
2022-08-17T10:54:59.656Z,32.57
2022-08-17T10:57:32.799Z,32.73
2022-08-17T11:00:19.109Z,32.95
2022-08-17T11:02:56.139Z,33.10
2022-08-17T11:05:43.821Z,33.24
2022-08-17T11:08:42.944Z,33.46
2022-08-17T11:11:47.810Z,33.55
2022-08-17T11:15:11.789Z,33.61
2022-08-17T11:18:18.241Z,33.66
2022-08-17T11:21:20.834Z,33.71
2022-08-17T11:24:00.057Z,33.79
2022-08-17T11:26:35.631Z,33.85
2022-08-17T11:29:24.828Z,33.84
2022-08-17T11:32:27.300Z,33.80
2022-08-17T11:35:29.843Z,33.63
2022-08-17T11:38:20.529Z,33.72
2022-08-17T11:41:16.398Z,33.58
2022-08-17T11:44:10.789Z,32.95
2022-08-17T11:48:25.967Z,32.91
2022-08-17T11:51:27.727Z,33.13
2022-08-17T11:57:21.880Z,32.98
2022-08-17T12:00:10.908Z,32.64
2022-08-17T12:02:48.130Z,32.27
2022-08-17T12:05:27.751Z,32.17
2022-08-17T12:08:18.890Z,31.99
2022-08-17T12:11:11.320Z,31.68
2022-08-17T12:13:56.660Z,31.36
2022-08-17T12:16:26.230Z,31.11
2022-08-17T12:19:02.711Z,31.05
2022-08-17T12:22:03.758Z,31.11
2022-08-17T12:24:51.861Z,31.28
2022-08-17T12:28:04.140Z,31.44
2022-08-17T12:32:40.944Z,31.66
2022-08-17T12:35:37.195Z,31.83
2022-08-17T12:38:32.383Z,31.86
2022-08-17T12:41:00.347Z,31.97
2022-08-17T12:43:33.287Z,32.05
2022-08-17T12:46:15.194Z,32.03
2022-08-17T12:48:59.856Z,31.88
2022-08-17T12:51:29.484Z,31.79
2022-08-17T12:53:58.170Z,31.76
2022-08-17T12:56:27.275Z,31.88
2022-08-17T12:58:56.887Z,31.98
2022-08-17T13:01:27.048Z,32.08
2022-08-17T13:03:59.979Z,32.13
2022-08-17T13:06:36.025Z,32.19
2022-08-17T13:09:35.554Z,32.23
2022-08-17T13:12:08.931Z,32.22
2022-08-17T13:14:37.734Z,32.22
2022-08-17T13:17:11.266Z,32.26
2022-08-17T13:19:50.888Z,32.27
2022-08-17T13:22:25.493Z,32.28
2022-08-17T13:25:05.865Z,32.24
2022-08-17T13:27:35.349Z,32.28
2022-08-17T13:30:12.786Z,32.20
2022-08-17T13:32:47.469Z,32.16
2022-08-17T13:35:51.832Z,32.12
2022-08-17T13:38:49.993Z,32.02
2022-08-17T13:41:35.103Z,31.93
2022-08-17T13:44:30.962Z,32.01
2022-08-17T13:47:02.812Z,32.17
2022-08-17T13:49:41.959Z,32.23
2022-08-17T13:52:44.576Z,32.27
2022-08-17T13:55:22.960Z,32.21
2022-08-17T13:58:03.888Z,32.13
2022-08-17T14:00:37.704Z,32.14
2022-08-17T14:03:06.826Z,32.14
2022-08-17T14:05:38.107Z,32.23
2022-08-17T14:08:07.414Z,32.31
2022-08-17T14:10:36.882Z,32.32
2022-08-17T14:13:08.147Z,32.26
2022-08-17T14:15:54.881Z,32.20
2022-08-17T14:18:55.272Z,32.18
2022-08-17T14:21:14.859Z,32.23
2022-08-17T14:23:54.302Z,32.24
2022-08-17T14:26:23.423Z,32.19
2022-08-17T14:28:54.751Z,32.19
2022-08-17T14:31:27.712Z,32.22
2022-08-17T14:33:56.119Z,32.25
2022-08-17T14:36:24.696Z,32.21
2022-08-17T14:38:53.291Z,32.17
2022-08-17T14:41:23.809Z,32.20
2022-08-17T14:43:55.992Z,32.22
2022-08-17T14:46:24.368Z,32.20
2022-08-17T14:48:57.381Z,32.24
2022-08-17T14:51:30.251Z,32.17
2022-08-17T14:53:58.921Z,32.16
2022-08-17T14:56:27.610Z,32.10
2022-08-17T14:59:00.281Z,32.11
2022-08-17T15:01:29.784Z,32.22
2022-08-17T15:03:58.449Z,32.27
2022-08-17T15:06:26.959Z,32.33
2022-08-17T15:08:56.149Z,32.34
2022-08-17T15:11:24.740Z,32.40
2022-08-17T15:13:53.415Z,32.36
2022-08-17T15:16:23.039Z,32.23
2022-08-17T15:18:53.048Z,32.18
2022-08-17T15:21:22.557Z,32.13
2022-08-17T15:23:52.037Z,32.12
2022-08-17T15:26:26.205Z,32.12
2022-08-17T15:28:56.839Z,32.17
2022-08-17T15:31:29.882Z,32.21
2022-08-17T15:34:01.358Z,32.24
2022-08-17T15:36:29.932Z,32.28
2022-08-17T15:38:59.339Z,32.19
2022-08-17T15:41:28.539Z,32.14
2022-08-17T15:43:57.331Z,32.06
2022-08-17T15:46:28.435Z,31.90
2022-08-17T15:49:00.350Z,31.83
2022-08-17T15:51:35.754Z,31.67
2022-08-17T15:54:18.815Z,31.60
2022-08-17T15:56:48.106Z,31.63
2022-08-17T15:59:16.483Z,31.65
2022-08-17T16:03:01.411Z,31.70
2022-08-17T16:04:33.362Z,31.85
2022-08-17T16:07:01.999Z,31.98
2022-08-17T16:09:30.451Z,32.10
2022-08-17T16:12:12.177Z,32.29
2022-08-17T16:14:41.176Z,32.36
2022-08-17T16:17:38.502Z,32.40
2022-08-17T16:19:59.323Z,32.45
2022-08-17T16:22:43.320Z,32.59
2022-08-17T16:25:20.239Z,32.69
2022-08-17T16:27:55.179Z,32.48
2022-08-17T16:30:27.400Z,32.22
2022-08-17T16:32:58.936Z,32.01
2022-08-17T16:35:28.521Z,31.72
2022-08-17T16:37:59.020Z,31.41
2022-08-17T16:40:31.313Z,31.07
2022-08-17T16:43:10.855Z,30.73
2022-08-17T16:45:40.999Z,30.48
2022-08-17T16:48:10.433Z,30.34
2022-08-17T16:50:39.263Z,30.18
2022-08-17T16:53:18.191Z,30.07
2022-08-17T16:55:49.359Z,30.04
2022-08-17T16:58:18.228Z,30.05
2022-08-17T17:00:49.175Z,30.04
2022-08-17T17:03:25.229Z,29.85
2022-08-17T17:06:06.389Z,29.66
2022-08-17T17:08:51.483Z,29.50
2022-08-17T17:11:36.769Z,29.31
2022-08-17T17:14:14.660Z,29.12
2022-08-17T17:17:03.583Z,28.92
2022-08-17T17:19:41.409Z,28.71
2022-08-17T17:22:41.848Z,28.52
2022-08-17T17:25:39.884Z,28.27
2022-08-17T17:28:49.169Z,27.94
2022-08-17T17:31:25.382Z,27.64
2022-08-17T17:34:03.132Z,27.48
2022-08-17T17:36:50.351Z,27.27
2022-08-17T17:39:43.738Z,27.03
2022-08-17T17:42:28.575Z,26.80
2022-08-17T17:45:12.428Z,26.71
2022-08-17T17:47:41.001Z,26.57
2022-08-17T17:50:10.818Z,26.43
2022-08-17T17:53:04.078Z,26.36
2022-08-17T17:56:00.097Z,26.29
2022-08-17T17:58:59.189Z,26.23
2022-08-17T18:01:50.017Z,26.11
2022-08-17T18:04:21.571Z,25.97
2022-08-17T18:07:30.300Z,25.83
2022-08-17T18:10:13.927Z,25.58
2022-08-17T18:13:33.620Z,25.28
2022-08-17T18:16:04.343Z,24.98
2022-08-17T18:18:38.572Z,24.84
2022-08-17T18:21:19.950Z,24.68
2022-08-17T18:24:02.970Z,24.56
2022-08-17T18:26:57.364Z,24.46
2022-08-17T18:29:30.660Z,24.42
2022-08-17T18:32:18.698Z,24.39
2022-08-17T18:35:09.827Z,24.37
2022-08-17T18:37:50.016Z,24.30
2022-08-17T18:40:19.843Z,24.16
2022-08-17T18:43:25.773Z,24.03
2022-08-17T18:45:58.029Z,23.90
2022-08-17T18:48:50.949Z,23.79
2022-08-17T18:51:42.090Z,23.67
2022-08-17T18:54:25.317Z,23.57
2022-08-17T18:57:00.896Z,23.48
2022-08-17T18:59:48.467Z,23.39
2022-08-17T19:02:46.064Z,23.31
2022-08-17T19:05:29.265Z,23.19
2022-08-17T19:08:23.706Z,23.00
2022-08-17T19:10:59.630Z,22.84
2022-08-17T19:13:46.225Z,22.77
2022-08-17T19:16:20.514Z,22.75
2022-08-17T19:19:11.658Z,22.83
2022-08-17T19:21:53.455Z,22.80
2022-08-17T19:24:28.818Z,22.95
2022-08-17T19:27:22.364Z,23.19
2022-08-17T19:30:05.505Z,23.20
2022-08-17T19:32:37.354Z,23.23
2022-08-17T19:35:15.129Z,23.29
2022-08-17T19:38:13.000Z,23.42
2022-08-17T19:40:55.775Z,23.36
2022-08-17T19:44:23.929Z,23.31
2022-08-17T19:47:01.245Z,23.22
2022-08-17T19:49:57.644Z,23.11
2022-08-17T19:52:55.220Z,23.00
2022-08-17T19:56:16.228Z,22.99
2022-08-17T19:59:13.890Z,22.87
2022-08-17T20:01:55.019Z,22.87
2022-08-17T20:04:31.787Z,22.89
2022-08-17T20:07:19.064Z,23.00
2022-08-17T20:10:08.424Z,23.18
2022-08-17T20:12:42.826Z,23.35
2022-08-17T20:15:30.180Z,23.44
2022-08-17T20:18:05.534Z,23.48
2022-08-17T20:20:54.723Z,23.56
2022-08-17T20:23:31.779Z,23.81
2022-08-17T20:26:23.236Z,23.94
2022-08-17T20:29:37.807Z,23.97
2022-08-17T20:32:27.292Z,23.99
2022-08-17T20:35:32.477Z,24.03
2022-08-17T20:38:10.895Z,24.06
2022-08-17T20:40:54.843Z,24.06
2022-08-17T20:43:34.376Z,24.07
2022-08-17T20:46:33.065Z,24.14
2022-08-17T20:49:47.484Z,24.12
2022-08-17T20:52:57.573Z,24.15
2022-08-17T20:55:51.741Z,24.15
2022-08-17T20:58:30.779Z,24.11
2022-08-17T21:01:10.766Z,24.13
2022-08-17T21:03:50.331Z,24.13
2022-08-17T21:06:23.573Z,24.10
2022-08-17T21:08:54.417Z,23.99
2022-08-17T21:11:57.146Z,23.95
2022-08-17T21:14:34.494Z,23.90
2022-08-17T21:17:35.964Z,23.78
2022-08-17T21:20:45.596Z,23.67
2022-08-17T21:23:44.974Z,23.52
2022-08-17T21:26:30.451Z,23.49
2022-08-17T21:29:29.499Z,23.53
2022-08-17T21:32:00.653Z,23.51
2022-08-17T21:35:07.095Z,23.52
2022-08-17T21:37:48.743Z,23.56
2022-08-17T21:40:26.604Z,23.57
2022-08-17T21:43:05.408Z,23.52
2022-08-17T21:45:40.732Z,23.43
2022-08-17T21:48:24.720Z,23.30
2022-08-17T21:51:17.955Z,23.24
2022-08-17T21:53:53.393Z,23.18
2022-08-17T21:56:33.674Z,23.12
